Terminal Aerodrome Forecast
Issued by NWS

Home | Current Version | Previous Version | Text Only | Print | Product List | Glossary On
Versions: 1 2 3 4 5 6 7 8 9 10 11 12 13 14 15 16 17 18 19 20 21 22 23 24
171
FTUS46 KEKA 262012 AAA
TAFCEC
TAF AMD
KCEC 262012Z 2620/2718 33006KT P6SM SCT007 OVC015
     FM262300 29007KT P6SM SCT015 SCT025
      TEMPO 2623/2701 BKN019
     FM270300 VRB03KT P6SM OVC015
     FM270900 VRB03KT P6SM OVC012=

USA.gov is the U.S. government's official web portal to all federal, state and local government web resources and services.